Terminal Aerodrome Forecast
Issued by NWS Jackson, KY

Home | Current Version | Previous Version | Text Only | Print | Product List | Glossary On
Versions: 1 2 3 4 5 6 7 8 9 10 11 12
000
FTUS43 KJKL 222300
TAFJKL
TAF
KJKL 222328Z 2300/2324 VRB05KT P6SM BKN070 OVC100
     FM231500 15004KT P6SM OVC050
     FM232000 15009KT 5SM -SHRA OVC030=

USA.gov is the U.S. government's official web portal to all federal, state and local government web resources and services.